sensor_id;sensor_type;location;lat;lon;timestamp;P1;durP1;ratioP1;P2;durP2;ratioP2
65206;SDS011;58477;48.072;11.970;2022-08-23T00:01:26;3.20;;;2.35;;
65206;SDS011;58477;48.072;11.970;2022-08-23T00:03:54;5.57;;;2.42;;
65206;SDS011;58477;48.072;11.970;2022-08-23T00:06:21;2.38;;;2.17;;
65206;SDS011;58477;48.072;11.970;2022-08-23T00:08:48;3.50;;;2.00;;
65206;SDS011;58477;48.072;11.970;2022-08-23T00:11:35;3.97;;;2.13;;
65206;SDS011;58477;48.072;11.970;2022-08-23T00:14:05;5.70;;;2.10;;
65206;SDS011;58477;48.072;11.970;2022-08-23T00:16:35;2.58;;;1.95;;
65206;SDS011;58477;48.072;11.970;2022-08-23T00:19:02;5.47;;;2.17;;
65206;SDS011;58477;48.072;11.970;2022-08-23T00:21:29;4.88;;;2.40;;
65206;SDS011;58477;48.072;11.970;2022-08-23T00:23:55;2.33;;;1.98;;
65206;SDS011;58477;48.072;11.970;2022-08-23T00:26:21;5.30;;;2.25;;
65206;SDS011;58477;48.072;11.970;2022-08-23T00:28:47;6.38;;;2.38;;
65206;SDS011;58477;48.072;11.970;2022-08-23T00:31:14;4.13;;;2.10;;
65206;SDS011;58477;48.072;11.970;2022-08-23T00:33:41;2.67;;;2.20;;
65206;SDS011;58477;48.072;11.970;2022-08-23T00:36:06;5.68;;;3.00;;
65206;SDS011;58477;48.072;11.970;2022-08-23T00:38:32;5.80;;;2.53;;
65206;SDS011;58477;48.072;11.970;2022-08-23T00:40:57;4.57;;;2.22;;
65206;SDS011;58477;48.072;11.970;2022-08-23T00:43:26;4.55;;;2.55;;
65206;SDS011;58477;48.072;11.970;2022-08-23T00:46:33;9.77;;;2.40;;
65206;SDS011;58477;48.072;11.970;2022-08-23T00:49:38;4.55;;;2.58;;
65206;SDS011;58477;48.072;11.970;2022-08-23T00:52:07;5.68;;;2.38;;
65206;SDS011;58477;48.072;11.970;2022-08-23T00:54:39;3.88;;;2.28;;
65206;SDS011;58477;48.072;11.970;2022-08-23T00:57:08;5.20;;;2.45;;
65206;SDS011;58477;48.072;11.970;2022-08-23T00:59:37;7.88;;;2.28;;
65206;SDS011;58477;48.072;11.970;2022-08-23T01:02:04;3.33;;;2.33;;
65206;SDS011;58477;48.072;11.970;2022-08-23T01:04:39;2.85;;;2.30;;
65206;SDS011;58477;48.072;11.970;2022-08-23T01:10:00;3.53;;;2.40;;
65206;SDS011;58477;48.072;11.970;2022-08-23T01:12:31;4.60;;;2.20;;
65206;SDS011;58477;48.072;11.970;2022-08-23T01:15:20;5.55;;;2.38;;
65206;SDS011;58477;48.072;11.970;2022-08-23T01:17:54;6.20;;;2.30;;
65206;SDS011;58477;48.072;11.970;2022-08-23T01:20:26;4.88;;;2.60;;
65206;SDS011;58477;48.072;11.970;2022-08-23T01:23:01;3.10;;;2.40;;
65206;SDS011;58477;48.072;11.970;2022-08-23T01:25:30;4.90;;;2.43;;
65206;SDS011;58477;48.072;11.970;2022-08-23T01:27:57;6.53;;;2.70;;
65206;SDS011;58477;48.072;11.970;2022-08-23T01:30:25;3.45;;;2.10;;
65206;SDS011;58477;48.072;11.970;2022-08-23T01:32:54;6.43;;;2.72;;
65206;SDS011;58477;48.072;11.970;2022-08-23T01:35:24;5.00;;;2.90;;
65206;SDS011;58477;48.072;11.970;2022-08-23T01:38:00;4.15;;;3.10;;
65206;SDS011;58477;48.072;11.970;2022-08-23T01:40:26;4.03;;;2.80;;
65206;SDS011;58477;48.072;11.970;2022-08-23T01:42:53;4.65;;;2.90;;
65206;SDS011;58477;48.072;11.970;2022-08-23T01:45:19;4.35;;;3.00;;
65206;SDS011;58477;48.072;11.970;2022-08-23T01:47:44;4.88;;;3.10;;
65206;SDS011;58477;48.072;11.970;2022-08-23T01:50:10;4.03;;;3.38;;
65206;SDS011;58477;48.072;11.970;2022-08-23T01:52:37;4.43;;;2.80;;
65206;SDS011;58477;48.072;11.970;2022-08-23T01:55:04;3.22;;;2.80;;
65206;SDS011;58477;48.072;11.970;2022-08-23T01:57:30;3.67;;;2.80;;
65206;SDS011;58477;48.072;11.970;2022-08-23T01:59:58;3.75;;;2.95;;
65206;SDS011;58477;48.072;11.970;2022-08-23T02:02:24;7.22;;;2.92;;
65206;SDS011;58477;48.072;11.970;2022-08-23T02:04:50;10.27;;;3.67;;
65206;SDS011;58477;48.072;11.970;2022-08-23T02:07:16;3.17;;;2.40;;
65206;SDS011;58477;48.072;11.970;2022-08-23T02:09:41;2.72;;;2.53;;
65206;SDS011;58477;48.072;11.970;2022-08-23T02:12:08;3.80;;;2.70;;
65206;SDS011;58477;48.072;11.970;2022-08-23T02:14:34;2.95;;;2.67;;
65206;SDS011;58477;48.072;11.970;2022-08-23T02:17:01;7.28;;;2.60;;
65206;SDS011;58477;48.072;11.970;2022-08-23T02:19:29;3.70;;;2.47;;
65206;SDS011;58477;48.072;11.970;2022-08-23T02:21:55;2.97;;;2.75;;
65206;SDS011;58477;48.072;11.970;2022-08-23T02:24:21;3.42;;;2.80;;
65206;SDS011;58477;48.072;11.970;2022-08-23T02:26:50;6.80;;;2.85;;
65206;SDS011;58477;48.072;11.970;2022-08-23T02:29:20;6.97;;;2.57;;
65206;SDS011;58477;48.072;11.970;2022-08-23T02:31:48;4.00;;;3.35;;
65206;SDS011;58477;48.072;11.970;2022-08-23T02:34:14;6.20;;;2.78;;
65206;SDS011;58477;48.072;11.970;2022-08-23T02:36:41;4.75;;;2.25;;
65206;SDS011;58477;48.072;11.970;2022-08-23T02:39:08;4.55;;;2.60;;
65206;SDS011;58477;48.072;11.970;2022-08-23T02:41:37;3.97;;;2.75;;
65206;SDS011;58477;48.072;11.970;2022-08-23T02:44:05;2.88;;;2.60;;
65206;SDS011;58477;48.072;11.970;2022-08-23T02:46:31;4.10;;;2.90;;
65206;SDS011;58477;48.072;11.970;2022-08-23T02:48:57;5.60;;;2.80;;
65206;SDS011;58477;48.072;11.970;2022-08-23T02:51:24;3.97;;;2.50;;
65206;SDS011;58477;48.072;11.970;2022-08-23T02:53:50;4.60;;;2.40;;
65206;SDS011;58477;48.072;11.970;2022-08-23T02:56:18;6.60;;;2.35;;
65206;SDS011;58477;48.072;11.970;2022-08-23T02:58:44;3.30;;;2.22;;
65206;SDS011;58477;48.072;11.970;2022-08-23T03:01:17;8.00;;;2.22;;
65206;SDS011;58477;48.072;11.970;2022-08-23T03:03:46;4.70;;;2.20;;
65206;SDS011;58477;48.072;11.970;2022-08-23T03:06:12;5.70;;;2.20;;
65206;SDS011;58477;48.072;11.970;2022-08-23T03:08:38;5.05;;;2.75;;
65206;SDS011;58477;48.072;11.970;2022-08-23T03:11:09;6.22;;;2.30;;
65206;SDS011;58477;48.072;11.970;2022-08-23T03:13:37;6.20;;;2.53;;
65206;SDS011;58477;48.072;11.970;2022-08-23T03:16:04;2.92;;;2.30;;
65206;SDS011;58477;48.072;11.970;2022-08-23T03:18:30;3.97;;;2.55;;
65206;SDS011;58477;48.072;11.970;2022-08-23T03:20:58;3.35;;;2.42;;
65206;SDS011;58477;48.072;11.970;2022-08-23T03:23:24;4.22;;;2.50;;
65206;SDS011;58477;48.072;11.970;2022-08-23T03:25:51;5.95;;;2.53;;
65206;SDS011;58477;48.072;11.970;2022-08-23T03:28:24;3.20;;;2.50;;
65206;SDS011;58477;48.072;11.970;2022-08-23T03:30:50;5.38;;;2.88;;
65206;SDS011;58477;48.072;11.970;2022-08-23T03:33:16;4.18;;;2.42;;
65206;SDS011;58477;48.072;11.970;2022-08-23T03:35:44;2.97;;;2.70;;
65206;SDS011;58477;48.072;11.970;2022-08-23T03:38:11;3.50;;;2.38;;
65206;SDS011;58477;48.072;11.970;2022-08-23T03:40:38;3.88;;;2.65;;
65206;SDS011;58477;48.072;11.970;2022-08-23T03:43:04;9.32;;;2.88;;
65206;SDS011;58477;48.072;11.970;2022-08-23T03:45:29;5.03;;;2.78;;
65206;SDS011;58477;48.072;11.970;2022-08-23T03:47:56;8.75;;;3.00;;
65206;SDS011;58477;48.072;11.970;2022-08-23T03:50:22;9.55;;;2.90;;
65206;SDS011;58477;48.072;11.970;2022-08-23T03:52:48;5.25;;;2.83;;
65206;SDS011;58477;48.072;11.970;2022-08-23T03:55:14;3.60;;;2.85;;
65206;SDS011;58477;48.072;11.970;2022-08-23T03:57:43;2.88;;;2.60;;
65206;SDS011;58477;48.072;11.970;2022-08-23T04:00:09;3.65;;;2.90;;
65206;SDS011;58477;48.072;11.970;2022-08-23T04:02:41;5.15;;;3.13;;
65206;SDS011;58477;48.072;11.970;2022-08-23T04:05:09;5.10;;;2.90;;
65206;SDS011;58477;48.072;11.970;2022-08-23T04:07:56;4.07;;;3.40;;
65206;SDS011;58477;48.072;11.970;2022-08-23T04:10:23;4.03;;;3.17;;
65206;SDS011;58477;48.072;11.970;2022-08-23T04:12:51;4.68;;;3.08;;
65206;SDS011;58477;48.072;11.970;2022-08-23T04:15:18;3.15;;;2.85;;
65206;SDS011;58477;48.072;11.970;2022-08-23T04:17:45;3.55;;;3.05;;
65206;SDS011;58477;48.072;11.970;2022-08-23T04:20:11;4.93;;;3.83;;
65206;SDS011;58477;48.072;11.970;2022-08-23T04:22:50;6.90;;;4.00;;
65206;SDS011;58477;48.072;11.970;2022-08-23T04:25:17;6.50;;;3.85;;
65206;SDS011;58477;48.072;11.970;2022-08-23T04:27:44;8.05;;;4.30;;
65206;SDS011;58477;48.072;11.970;2022-08-23T04:30:10;6.80;;;4.30;;
65206;SDS011;58477;48.072;11.970;2022-08-23T04:32:36;4.30;;;3.90;;
65206;SDS011;58477;48.072;11.970;2022-08-23T04:35:02;8.68;;;4.70;;
65206;SDS011;58477;48.072;11.970;2022-08-23T04:37:28;8.30;;;4.45;;
65206;SDS011;58477;48.072;11.970;2022-08-23T04:39:54;7.05;;;4.43;;
65206;SDS011;58477;48.072;11.970;2022-08-23T04:42:41;5.43;;;4.30;;
65206;SDS011;58477;48.072;11.970;2022-08-23T04:45:06;7.68;;;5.53;;
65206;SDS011;58477;48.072;11.970;2022-08-23T04:47:34;7.53;;;4.80;;
65206;SDS011;58477;48.072;11.970;2022-08-23T04:50:04;5.20;;;4.63;;
65206;SDS011;58477;48.072;11.970;2022-08-23T04:52:31;8.63;;;4.70;;
65206;SDS011;58477;48.072;11.970;2022-08-23T04:54:57;8.40;;;4.80;;
65206;SDS011;58477;48.072;11.970;2022-08-23T04:57:44;10.40;;;5.10;;
65206;SDS011;58477;48.072;11.970;2022-08-23T05:00:14;7.63;;;4.10;;
65206;SDS011;58477;48.072;11.970;2022-08-23T05:02:48;6.38;;;4.60;;
65206;SDS011;58477;48.072;11.970;2022-08-23T05:05:13;4.25;;;3.72;;
65206;SDS011;58477;48.072;11.970;2022-08-23T05:07:42;7.22;;;4.30;;
65206;SDS011;58477;48.072;11.970;2022-08-23T05:10:09;12.57;;;4.63;;
65206;SDS011;58477;48.072;11.970;2022-08-23T05:12:38;5.97;;;3.50;;
65206;SDS011;58477;48.072;11.970;2022-08-23T05:15:04;6.47;;;3.33;;
65206;SDS011;58477;48.072;11.970;2022-08-23T05:17:30;6.78;;;3.22;;
65206;SDS011;58477;48.072;11.970;2022-08-23T05:19:57;4.30;;;3.13;;
65206;SDS011;58477;48.072;11.970;2022-08-23T05:22:22;5.18;;;3.33;;
65206;SDS011;58477;48.072;11.970;2022-08-23T05:25:26;4.78;;;2.90;;
65206;SDS011;58477;48.072;11.970;2022-08-23T05:28:13;3.67;;;2.70;;
65206;SDS011;58477;48.072;11.970;2022-08-23T05:31:20;5.53;;;2.85;;
65206;SDS011;58477;48.072;11.970;2022-08-23T05:33:50;4.78;;;2.42;;
65206;SDS011;58477;48.072;11.970;2022-08-23T05:36:23;3.38;;;2.63;;
65206;SDS011;58477;48.072;11.970;2022-08-23T05:38:49;6.30;;;2.80;;
65206;SDS011;58477;48.072;11.970;2022-08-23T05:41:19;5.72;;;3.53;;
65206;SDS011;58477;48.072;11.970;2022-08-23T05:43:46;3.83;;;2.70;;
65206;SDS011;58477;48.072;11.970;2022-08-23T05:46:14;5.95;;;3.05;;
65206;SDS011;58477;48.072;11.970;2022-08-23T05:48:46;7.32;;;3.47;;
65206;SDS011;58477;48.072;11.970;2022-08-23T05:53:46;3.28;;;2.97;;
65206;SDS011;58477;48.072;11.970;2022-08-23T05:56:16;4.10;;;3.00;;
65206;SDS011;58477;48.072;11.970;2022-08-23T05:58:44;3.47;;;2.75;;
65206;SDS011;58477;48.072;11.970;2022-08-23T06:01:10;5.53;;;3.30;;
65206;SDS011;58477;48.072;11.970;2022-08-23T06:03:38;3.65;;;2.80;;
65206;SDS011;58477;48.072;11.970;2022-08-23T06:06:05;4.88;;;3.15;;
65206;SDS011;58477;48.072;11.970;2022-08-23T06:08:32;6.00;;;2.72;;
65206;SDS011;58477;48.072;11.970;2022-08-23T06:11:03;3.53;;;2.75;;
65206;SDS011;58477;48.072;11.970;2022-08-23T06:13:39;3.78;;;2.53;;
65206;SDS011;58477;48.072;11.970;2022-08-23T06:16:08;3.22;;;2.20;;
65206;SDS011;58477;48.072;11.970;2022-08-23T06:18:34;5.90;;;2.50;;
65206;SDS011;58477;48.072;11.970;2022-08-23T06:21:16;3.67;;;2.05;;
65206;SDS011;58477;48.072;11.970;2022-08-23T06:23:46;5.28;;;2.70;;
65206;SDS011;58477;48.072;11.970;2022-08-23T06:28:46;4.35;;;2.40;;
65206;SDS011;58477;48.072;11.970;2022-08-23T06:31:13;3.00;;;2.67;;
65206;SDS011;58477;48.072;11.970;2022-08-23T06:33:52;3.95;;;2.10;;
65206;SDS011;58477;48.072;11.970;2022-08-23T06:36:53;6.53;;;2.40;;
65206;SDS011;58477;48.072;11.970;2022-08-23T06:39:39;2.83;;;2.38;;
65206;SDS011;58477;48.072;11.970;2022-08-23T06:42:32;4.30;;;2.35;;
65206;SDS011;58477;48.072;11.970;2022-08-23T06:45:01;2.25;;;2.03;;
65206;SDS011;58477;48.072;11.970;2022-08-23T06:47:35;9.13;;;2.45;;
65206;SDS011;58477;48.072;11.970;2022-08-23T06:50:02;3.92;;;2.45;;
65206;SDS011;58477;48.072;11.970;2022-08-23T06:53:00;4.65;;;2.08;;
65206;SDS011;58477;48.072;11.970;2022-08-23T06:55:40;2.42;;;2.20;;
65206;SDS011;58477;48.072;11.970;2022-08-23T06:58:21;3.38;;;2.38;;
65206;SDS011;58477;48.072;11.970;2022-08-23T07:01:11;2.83;;;2.15;;
65206;SDS011;58477;48.072;11.970;2022-08-23T07:04:03;3.22;;;1.95;;
65206;SDS011;58477;48.072;11.970;2022-08-23T07:06:49;3.78;;;1.80;;
65206;SDS011;58477;48.072;11.970;2022-08-23T07:09:15;1.83;;;1.63;;
65206;SDS011;58477;48.072;11.970;2022-08-23T07:11:41;2.70;;;1.90;;
65206;SDS011;58477;48.072;11.970;2022-08-23T07:14:08;2.85;;;1.80;;
65206;SDS011;58477;48.072;11.970;2022-08-23T07:16:40;4.47;;;1.95;;
65206;SDS011;58477;48.072;11.970;2022-08-23T07:19:08;3.33;;;1.92;;
65206;SDS011;58477;48.072;11.970;2022-08-23T07:21:35;2.22;;;1.83;;
65206;SDS011;58477;48.072;11.970;2022-08-23T07:24:01;3.03;;;1.92;;
65206;SDS011;58477;48.072;11.970;2022-08-23T07:26:27;9.82;;;1.70;;
65206;SDS011;58477;48.072;11.970;2022-08-23T07:28:54;5.05;;;2.00;;
65206;SDS011;58477;48.072;11.970;2022-08-23T07:31:23;2.40;;;1.60;;
65206;SDS011;58477;48.072;11.970;2022-08-23T07:33:55;2.78;;;1.90;;
65206;SDS011;58477;48.072;11.970;2022-08-23T07:36:23;1.95;;;1.65;;
65206;SDS011;58477;48.072;11.970;2022-08-23T07:38:51;4.20;;;1.65;;
65206;SDS011;58477;48.072;11.970;2022-08-23T07:41:18;3.17;;;1.67;;
65206;SDS011;58477;48.072;11.970;2022-08-23T07:43:46;5.38;;;1.90;;
65206;SDS011;58477;48.072;11.970;2022-08-23T07:46:11;5.18;;;2.10;;
65206;SDS011;58477;48.072;11.970;2022-08-23T07:48:38;3.92;;;1.80;;
65206;SDS011;58477;48.072;11.970;2022-08-23T07:51:17;2.50;;;1.80;;
65206;SDS011;58477;48.072;11.970;2022-08-23T07:53:43;5.82;;;1.67;;
65206;SDS011;58477;48.072;11.970;2022-08-23T07:56:11;4.43;;;1.70;;
65206;SDS011;58477;48.072;11.970;2022-08-23T07:58:53;2.67;;;1.42;;
65206;SDS011;58477;48.072;11.970;2022-08-23T08:01:32;6.20;;;1.90;;
65206;SDS011;58477;48.072;11.970;2022-08-23T08:03:58;4.30;;;2.03;;
65206;SDS011;58477;48.072;11.970;2022-08-23T08:06:30;3.42;;;1.95;;
65206;SDS011;58477;48.072;11.970;2022-08-23T08:08:58;3.40;;;2.00;;
65206;SDS011;58477;48.072;11.970;2022-08-23T08:11:24;3.35;;;1.60;;
65206;SDS011;58477;48.072;11.970;2022-08-23T08:13:52;1.95;;;1.58;;
65206;SDS011;58477;48.072;11.970;2022-08-23T08:18:47;2.05;;;1.70;;
65206;SDS011;58477;48.072;11.970;2022-08-23T08:21:33;3.92;;;1.67;;
65206;SDS011;58477;48.072;11.970;2022-08-23T08:24:06;4.20;;;1.80;;
65206;SDS011;58477;48.072;11.970;2022-08-23T08:26:44;5.43;;;1.58;;
65206;SDS011;58477;48.072;11.970;2022-08-23T08:29:11;3.47;;;1.67;;
65206;SDS011;58477;48.072;11.970;2022-08-23T08:31:41;5.90;;;1.83;;
65206;SDS011;58477;48.072;11.970;2022-08-23T08:34:08;4.75;;;1.83;;
65206;SDS011;58477;48.072;11.970;2022-08-23T08:39:10;2.67;;;1.55;;
65206;SDS011;58477;48.072;11.970;2022-08-23T08:44:31;3.13;;;1.65;;
65206;SDS011;58477;48.072;11.970;2022-08-23T08:47:21;3.00;;;1.90;;
65206;SDS011;58477;48.072;11.970;2022-08-23T08:50:02;4.60;;;1.63;;
65206;SDS011;58477;48.072;11.970;2022-08-23T08:52:34;3.95;;;1.90;;
65206;SDS011;58477;48.072;11.970;2022-08-23T08:55:29;5.65;;;2.03;;
65206;SDS011;58477;48.072;11.970;2022-08-23T08:58:01;6.88;;;1.88;;
65206;SDS011;58477;48.072;11.970;2022-08-23T09:00:31;2.25;;;1.27;;
65206;SDS011;58477;48.072;11.970;2022-08-23T09:03:05;3.08;;;2.10;;
65206;SDS011;58477;48.072;11.970;2022-08-23T09:05:37;2.83;;;1.73;;
65206;SDS011;58477;48.072;11.970;2022-08-23T09:08:11;3.70;;;1.52;;
65206;SDS011;58477;48.072;11.970;2022-08-23T09:14:11;5.85;;;1.60;;
65206;SDS011;58477;48.072;11.970;2022-08-23T09:16:53;4.20;;;1.57;;
65206;SDS011;58477;48.072;11.970;2022-08-23T09:19:22;3.97;;;1.55;;
65206;SDS011;58477;48.072;11.970;2022-08-23T09:21:54;2.78;;;1.40;;
65206;SDS011;58477;48.072;11.970;2022-08-23T09:24:23;3.40;;;1.77;;
65206;SDS011;58477;48.072;11.970;2022-08-23T09:26:59;2.92;;;1.38;;
65206;SDS011;58477;48.072;11.970;2022-08-23T09:29:30;3.15;;;1.33;;
65206;SDS011;58477;48.072;11.970;2022-08-23T09:31:58;1.80;;;1.35;;
65206;SDS011;58477;48.072;11.970;2022-08-23T09:37:19;2.78;;;1.40;;
65206;SDS011;58477;48.072;11.970;2022-08-23T09:39:53;3.75;;;1.48;;
65206;SDS011;58477;48.072;11.970;2022-08-23T09:42:38;2.03;;;1.40;;
65206;SDS011;58477;48.072;11.970;2022-08-23T09:47:51;1.90;;;1.35;;
65206;SDS011;58477;48.072;11.970;2022-08-23T09:50:23;4.45;;;1.38;;
65206;SDS011;58477;48.072;11.970;2022-08-23T09:52:59;5.28;;;1.67;;
65206;SDS011;58477;48.072;11.970;2022-08-23T09:55:30;5.43;;;1.70;;
65206;SDS011;58477;48.072;11.970;2022-08-23T09:57:57;2.92;;;1.55;;
65206;SDS011;58477;48.072;11.970;2022-08-23T10:00:26;4.18;;;1.50;;
65206;SDS011;58477;48.072;11.970;2022-08-23T10:05:49;3.03;;;1.30;;
65206;SDS011;58477;48.072;11.970;2022-08-23T10:08:22;2.63;;;1.50;;
65206;SDS011;58477;48.072;11.970;2022-08-23T10:10:51;3.20;;;1.30;;
65206;SDS011;58477;48.072;11.970;2022-08-23T10:13:28;3.70;;;1.50;;
65206;SDS011;58477;48.072;11.970;2022-08-23T10:16:15;2.60;;;1.48;;
65206;SDS011;58477;48.072;11.970;2022-08-23T10:19:00;2.95;;;1.50;;
65206;SDS011;58477;48.072;11.970;2022-08-23T10:21:40;5.20;;;1.30;;
65206;SDS011;58477;48.072;11.970;2022-08-23T10:24:14;4.55;;;1.50;;
65206;SDS011;58477;48.072;11.970;2022-08-23T10:27:01;1.67;;;1.20;;
65206;SDS011;58477;48.072;11.970;2022-08-23T10:30:06;4.47;;;1.35;;
65206;SDS011;58477;48.072;11.970;2022-08-23T10:32:59;2.72;;;1.40;;
65206;SDS011;58477;48.072;11.970;2022-08-23T10:35:44;3.22;;;1.30;;
65206;SDS011;58477;48.072;11.970;2022-08-23T10:43:45;3.63;;;1.42;;
65206;SDS011;58477;48.072;11.970;2022-08-23T10:46:28;2.40;;;1.33;;
65206;SDS011;58477;48.072;11.970;2022-08-23T10:48:58;4.35;;;1.88;;
65206;SDS011;58477;48.072;11.970;2022-08-23T10:51:29;3.53;;;1.30;;
65206;SDS011;58477;48.072;11.970;2022-08-23T10:54:01;3.80;;;1.40;;
65206;SDS011;58477;48.072;11.970;2022-08-23T10:56:32;3.67;;;1.23;;
65206;SDS011;58477;48.072;11.970;2022-08-23T10:59:00;4.15;;;1.40;;
65206;SDS011;58477;48.072;11.970;2022-08-23T11:01:46;2.95;;;1.42;;
65206;SDS011;58477;48.072;11.970;2022-08-23T11:07:29;2.40;;;1.55;;
65206;SDS011;58477;48.072;11.970;2022-08-23T11:10:16;3.85;;;1.48;;
65206;SDS011;58477;48.072;11.970;2022-08-23T11:23:40;2.75;;;1.40;;
65206;SDS011;58477;48.072;11.970;2022-08-23T11:28:47;3.20;;;1.30;;
65206;SDS011;58477;48.072;11.970;2022-08-23T11:31:19;2.90;;;1.40;;
65206;SDS011;58477;48.072;11.970;2022-08-23T11:33:52;2.00;;;1.15;;
65206;SDS011;58477;48.072;11.970;2022-08-23T11:36:26;1.92;;;1.27;;
65206;SDS011;58477;48.072;11.970;2022-08-23T11:41:31;2.33;;;1.42;;
65206;SDS011;58477;48.072;11.970;2022-08-23T12:02:51;1.52;;;1.02;;
65206;SDS011;58477;48.072;11.970;2022-08-23T12:18:44;2.40;;;1.50;;
65206;SDS011;58477;48.072;11.970;2022-08-23T12:23:50;4.32;;;1.20;;
65206;SDS011;58477;48.072;11.970;2022-08-23T12:29:04;2.67;;;1.33;;
65206;SDS011;58477;48.072;11.970;2022-08-23T12:31:47;3.53;;;1.23;;
65206;SDS011;58477;48.072;11.970;2022-08-23T12:34:39;7.13;;;1.40;;
65206;SDS011;58477;48.072;11.970;2022-08-23T12:37:24;1.45;;;1.10;;
65206;SDS011;58477;48.072;11.970;2022-08-23T12:39:59;5.10;;;1.70;;
65206;SDS011;58477;48.072;11.970;2022-08-23T12:42:27;4.65;;;1.35;;
65206;SDS011;58477;48.072;11.970;2022-08-23T12:47:42;3.65;;;1.40;;
65206;SDS011;58477;48.072;11.970;2022-08-23T12:50:20;2.53;;;1.27;;
65206;SDS011;58477;48.072;11.970;2022-08-23T12:52:55;2.33;;;1.50;;
65206;SDS011;58477;48.072;11.970;2022-08-23T12:55:22;3.28;;;1.42;;
65206;SDS011;58477;48.072;11.970;2022-08-23T12:57:52;3.30;;;1.25;;
65206;SDS011;58477;48.072;11.970;2022-08-23T13:00:25;7.55;;;1.25;;
65206;SDS011;58477;48.072;11.970;2022-08-23T13:02:59;2.85;;;1.17;;
65206;SDS011;58477;48.072;11.970;2022-08-23T13:05:36;1.27;;;0.98;;
65206;SDS011;58477;48.072;11.970;2022-08-23T13:08:07;3.58;;;1.25;;
65206;SDS011;58477;48.072;11.970;2022-08-23T13:10:35;3.33;;;1.20;;
65206;SDS011;58477;48.072;11.970;2022-08-23T13:13:02;1.80;;;1.20;;
65206;SDS011;58477;48.072;11.970;2022-08-23T13:15:45;3.15;;;1.20;;
65206;SDS011;58477;48.072;11.970;2022-08-23T13:18:23;2.72;;;1.00;;
65206;SDS011;58477;48.072;11.970;2022-08-23T13:23:42;2.35;;;0.90;;
65206;SDS011;58477;48.072;11.970;2022-08-23T13:29:02;1.02;;;0.93;;
65206;SDS011;58477;48.072;11.970;2022-08-23T13:31:53;2.15;;;1.10;;
65206;SDS011;58477;48.072;11.970;2022-08-23T13:37:20;1.92;;;0.98;;
65206;SDS011;58477;48.072;11.970;2022-08-23T13:39:59;3.22;;;1.10;;
65206;SDS011;58477;48.072;11.970;2022-08-23T13:42:46;1.50;;;0.98;;
65206;SDS011;58477;48.072;11.970;2022-08-23T13:45:17;1.83;;;1.10;;
65206;SDS011;58477;48.072;11.970;2022-08-23T13:47:47;1.63;;;1.10;;
65206;SDS011;58477;48.072;11.970;2022-08-23T13:50:22;2.10;;;1.00;;
65206;SDS011;58477;48.072;11.970;2022-08-23T13:52:50;1.23;;;1.00;;
65206;SDS011;58477;48.072;11.970;2022-08-23T13:55:15;1.10;;;1.00;;
65206;SDS011;58477;48.072;11.970;2022-08-23T13:57:40;4.68;;;1.10;;
65206;SDS011;58477;48.072;11.970;2022-08-23T14:00:07;1.30;;;0.85;;
65206;SDS011;58477;48.072;11.970;2022-08-23T14:02:35;3.25;;;1.05;;
65206;SDS011;58477;48.072;11.970;2022-08-23T14:05:02;2.47;;;0.90;;
65206;SDS011;58477;48.072;11.970;2022-08-23T14:07:31;2.70;;;1.30;;
65206;SDS011;58477;48.072;11.970;2022-08-23T14:09:57;1.27;;;1.00;;
65206;SDS011;58477;48.072;11.970;2022-08-23T14:12:25;1.30;;;1.00;;
65206;SDS011;58477;48.072;11.970;2022-08-23T14:14:53;5.03;;;0.90;;
65206;SDS011;58477;48.072;11.970;2022-08-23T14:17:20;1.10;;;1.00;;
65206;SDS011;58477;48.072;11.970;2022-08-23T14:19:45;1.60;;;0.93;;
65206;SDS011;58477;48.072;11.970;2022-08-23T14:22:13;1.10;;;1.00;;
65206;SDS011;58477;48.072;11.970;2022-08-23T14:24:39;2.38;;;1.05;;
65206;SDS011;58477;48.072;11.970;2022-08-23T14:27:04;5.10;;;1.42;;
65206;SDS011;58477;48.072;11.970;2022-08-23T14:29:31;1.63;;;1.05;;
65206;SDS011;58477;48.072;11.970;2022-08-23T14:31:57;2.20;;;1.08;;
65206;SDS011;58477;48.072;11.970;2022-08-23T14:34:23;1.88;;;1.05;;
65206;SDS011;58477;48.072;11.970;2022-08-23T14:36:53;2.00;;;1.10;;
65206;SDS011;58477;48.072;11.970;2022-08-23T14:39:19;2.58;;;1.08;;
65206;SDS011;58477;48.072;11.970;2022-08-23T14:41:45;1.00;;;0.90;;
65206;SDS011;58477;48.072;11.970;2022-08-23T14:44:11;4.93;;;1.20;;
65206;SDS011;58477;48.072;11.970;2022-08-23T14:46:38;3.38;;;1.20;;
65206;SDS011;58477;48.072;11.970;2022-08-23T14:49:04;3.45;;;1.20;;
65206;SDS011;58477;48.072;11.970;2022-08-23T14:51:33;2.40;;;1.17;;
65206;SDS011;58477;48.072;11.970;2022-08-23T14:54:02;1.33;;;1.05;;
65206;SDS011;58477;48.072;11.970;2022-08-23T14:56:29;1.45;;;0.95;;
65206;SDS011;58477;48.072;11.970;2022-08-23T14:58:55;3.20;;;1.27;;
65206;SDS011;58477;48.072;11.970;2022-08-23T15:01:20;1.80;;;1.20;;
65206;SDS011;58477;48.072;11.970;2022-08-23T15:03:47;2.38;;;1.17;;
65206;SDS011;58477;48.072;11.970;2022-08-23T15:06:13;4.13;;;1.10;;
65206;SDS011;58477;48.072;11.970;2022-08-23T15:08:40;2.80;;;1.10;;
65206;SDS011;58477;48.072;11.970;2022-08-23T15:11:06;4.43;;;2.13;;
65206;SDS011;58477;48.072;11.970;2022-08-23T15:13:33;2.35;;;1.17;;
65206;SDS011;58477;48.072;11.970;2022-08-23T15:16:00;2.85;;;1.42;;
65206;SDS011;58477;48.072;11.970;2022-08-23T15:18:27;2.03;;;1.20;;
65206;SDS011;58477;48.072;11.970;2022-08-23T15:20:52;2.67;;;1.30;;
65206;SDS011;58477;48.072;11.970;2022-08-23T15:23:18;1.80;;;1.10;;
65206;SDS011;58477;48.072;11.970;2022-08-23T15:25:44;3.60;;;1.00;;
65206;SDS011;58477;48.072;11.970;2022-08-23T15:28:12;1.77;;;1.27;;
65206;SDS011;58477;48.072;11.970;2022-08-23T15:30:39;2.25;;;1.30;;
65206;SDS011;58477;48.072;11.970;2022-08-23T15:33:05;2.65;;;1.30;;
65206;SDS011;58477;48.072;11.970;2022-08-23T15:35:36;1.20;;;1.10;;
65206;SDS011;58477;48.072;11.970;2022-08-23T15:38:04;1.40;;;1.10;;
65206;SDS011;58477;48.072;11.970;2022-08-23T15:40:29;2.03;;;1.27;;
65206;SDS011;58477;48.072;11.970;2022-08-23T15:42:55;8.40;;;1.27;;
65206;SDS011;58477;48.072;11.970;2022-08-23T15:45:20;2.35;;;1.35;;
65206;SDS011;58477;48.072;11.970;2022-08-23T15:50:13;2.63;;;1.20;;
65206;SDS011;58477;48.072;11.970;2022-08-23T15:52:40;7.82;;;1.40;;
65206;SDS011;58477;48.072;11.970;2022-08-23T15:55:05;1.83;;;1.27;;
65206;SDS011;58477;48.072;11.970;2022-08-23T15:57:31;3.22;;;1.10;;
65206;SDS011;58477;48.072;11.970;2022-08-23T16:00:04;2.47;;;1.38;;
65206;SDS011;58477;48.072;11.970;2022-08-23T16:02:37;2.08;;;1.33;;
65206;SDS011;58477;48.072;11.970;2022-08-23T16:05:03;6.40;;;1.60;;
65206;SDS011;58477;48.072;11.970;2022-08-23T16:07:29;4.65;;;1.40;;
65206;SDS011;58477;48.072;11.970;2022-08-23T16:09:56;3.42;;;1.10;;
65206;SDS011;58477;48.072;11.970;2022-08-23T16:12:23;5.63;;;1.98;;
65206;SDS011;58477;48.072;11.970;2022-08-23T16:14:50;1.70;;;1.40;;
65206;SDS011;58477;48.072;11.970;2022-08-23T16:17:15;4.07;;;1.25;;
65206;SDS011;58477;48.072;11.970;2022-08-23T16:19:43;3.30;;;1.50;;
65206;SDS011;58477;48.072;11.970;2022-08-23T16:22:08;1.33;;;1.20;;
65206;SDS011;58477;48.072;11.970;2022-08-23T16:24:34;2.30;;;1.30;;
65206;SDS011;58477;48.072;11.970;2022-08-23T16:26:59;1.75;;;1.40;;
65206;SDS011;58477;48.072;11.970;2022-08-23T16:29:25;4.88;;;1.45;;
65206;SDS011;58477;48.072;11.970;2022-08-23T16:31:55;3.53;;;1.70;;
65206;SDS011;58477;48.072;11.970;2022-08-23T16:34:21;1.50;;;1.25;;
65206;SDS011;58477;48.072;11.970;2022-08-23T16:36:47;2.85;;;1.60;;
65206;SDS011;58477;48.072;11.970;2022-08-23T16:39:17;3.40;;;1.40;;